ESMT/HAD METAR and TAF weather

Enter ICAO airport designator
Station Type Date Time Source
ESMT METAR 2018/10/21 03:50 UTC NOAA

ESMT 210350Z AUTO 17004KT 9999 BKN011/// OVC069/// 09/08 Q1025


Station Type Date Time Source
ESMT Decoded METAR 2018/10/21 03:50 UTC NOAA

Halmstad Swedish Air Force Base , Sweden (ESMT) 56-41N 012-50E
Oct 20, 2018 - 11:50 PM EDT / 2018.10.21 0350 UTC
Wind: from the S (170 degrees) at 5 MPH (4 KT):0
Visibility: greater than 7 mile(s):0
Sky conditions: overcast
Temperature: 48 F (9 C)
Dew Point: 46 F (8 C)
Relative Humidity: 93%
Pressure (altimeter): 30.27 in. Hg (1025 hPa)
ob: ESMT 210350Z AUTO 17004KT 9999 BKN011/// OVC069/// 09/08 Q1025
cycle: 4

Station Type Date Time Source
ESMT TAF 2017/04/24 06:33 UTC NOAA

TAF TAF ESMT 240513Z 2406/2506 22018KT 9999 BKN018
TEMPO 2406/2413 22018G30KT 4000 RADZ BKN008
TEMPO 2413/2415 24020G30KT 4000 SHRA BKN014 SCT020CB


Example: see airport list